sensor_id;sensor_type;location;lat;lon;timestamp;P1;durP1;ratioP1;P2;durP2;ratioP2
74967;SDS011;63523;51.880;12.630;2023-07-28T00:00:26;1.77;;;0.30;;
74967;SDS011;63523;51.880;12.630;2023-07-28T00:02:51;3.60;;;0.30;;
74967;SDS011;63523;51.880;12.630;2023-07-28T00:05:16;3.87;;;0.33;;
74967;SDS011;63523;51.880;12.630;2023-07-28T00:07:41;2.70;;;0.23;;
74967;SDS011;63523;51.880;12.630;2023-07-28T00:10:07;3.97;;;0.30;;
74967;SDS011;63523;51.880;12.630;2023-07-28T00:12:33;2.95;;;0.22;;
74967;SDS011;63523;51.880;12.630;2023-07-28T00:14:59;2.50;;;0.30;;
74967;SDS011;63523;51.880;12.630;2023-07-28T00:17:25;5.00;;;0.30;;
74967;SDS011;63523;51.880;12.630;2023-07-28T00:19:50;2.90;;;0.30;;
74967;SDS011;63523;51.880;12.630;2023-07-28T00:22:15;4.00;;;0.40;;
74967;SDS011;63523;51.880;12.630;2023-07-28T00:24:41;2.73;;;0.30;;
74967;SDS011;63523;51.880;12.630;2023-07-28T00:27:06;1.97;;;0.20;;
74967;SDS011;63523;51.880;12.630;2023-07-28T00:29:31;1.60;;;0.20;;
74967;SDS011;63523;51.880;12.630;2023-07-28T00:31:57;1.73;;;0.30;;
74967;SDS011;63523;51.880;12.630;2023-07-28T00:34:22;3.13;;;0.30;;
74967;SDS011;63523;51.880;12.630;2023-07-28T00:36:47;1.80;;;0.20;;
74967;SDS011;63523;51.880;12.630;2023-07-28T00:39:13;2.00;;;0.30;;
74967;SDS011;63523;51.880;12.630;2023-07-28T00:41:38;2.80;;;0.30;;
74967;SDS011;63523;51.880;12.630;2023-07-28T00:44:04;2.83;;;0.20;;
74967;SDS011;63523;51.880;12.630;2023-07-28T00:46:29;1.70;;;0.30;;
74967;SDS011;63523;51.880;12.630;2023-07-28T00:48:55;2.40;;;0.20;;
74967;SDS011;63523;51.880;12.630;2023-07-28T00:51:20;1.67;;;0.20;;
74967;SDS011;63523;51.880;12.630;2023-07-28T00:53:46;1.47;;;0.23;;
74967;SDS011;63523;51.880;12.630;2023-07-28T00:56:11;2.33;;;0.30;;
74967;SDS011;63523;51.880;12.630;2023-07-28T00:58:37;2.97;;;0.40;;
74967;SDS011;63523;51.880;12.630;2023-07-28T01:01:02;1.90;;;0.30;;
74967;SDS011;63523;51.880;12.630;2023-07-28T01:03:28;3.03;;;0.40;;
74967;SDS011;63523;51.880;12.630;2023-07-28T01:08:47;1.50;;;0.28;;
74967;SDS011;63523;51.880;12.630;2023-07-28T01:11:17;2.63;;;0.20;;
74967;SDS011;63523;51.880;12.630;2023-07-28T01:13:42;3.03;;;0.40;;
74967;SDS011;63523;51.880;12.630;2023-07-28T01:16:08;2.03;;;0.30;;
74967;SDS011;63523;51.880;12.630;2023-07-28T01:18:33;1.57;;;0.20;;
74967;SDS011;63523;51.880;12.630;2023-07-28T01:21:00;2.00;;;0.20;;
74967;SDS011;63523;51.880;12.630;2023-07-28T01:28:33;2.53;;;0.20;;
74967;SDS011;63523;51.880;12.630;2023-07-28T01:31:00;4.97;;;0.20;;
74967;SDS011;63523;51.880;12.630;2023-07-28T01:33:29;1.50;;;0.20;;
74967;SDS011;63523;51.880;12.630;2023-07-28T01:35:55;1.73;;;0.30;;
74967;SDS011;63523;51.880;12.630;2023-07-28T01:38:20;2.43;;;0.20;;
74967;SDS011;63523;51.880;12.630;2023-07-28T01:40:46;1.40;;;0.20;;
74967;SDS011;63523;51.880;12.630;2023-07-28T01:43:11;1.70;;;0.20;;
74967;SDS011;63523;51.880;12.630;2023-07-28T01:45:36;4.47;;;0.20;;
74967;SDS011;63523;51.880;12.630;2023-07-28T01:48:01;2.47;;;0.20;;
74967;SDS011;63523;51.880;12.630;2023-07-28T01:50:27;1.87;;;0.17;;
74967;SDS011;63523;51.880;12.630;2023-07-28T01:52:52;2.30;;;0.20;;
74967;SDS011;63523;51.880;12.630;2023-07-28T01:55:17;1.57;;;0.20;;
74967;SDS011;63523;51.880;12.630;2023-07-28T01:57:49;1.53;;;0.10;;
74967;SDS011;63523;51.880;12.630;2023-07-28T02:00:17;1.80;;;0.20;;
74967;SDS011;63523;51.880;12.630;2023-07-28T02:02:42;3.03;;;0.20;;
74967;SDS011;63523;51.880;12.630;2023-07-28T02:05:08;2.00;;;0.40;;
74967;SDS011;63523;51.880;12.630;2023-07-28T02:07:33;1.60;;;0.20;;
74967;SDS011;63523;51.880;12.630;2023-07-28T02:09:58;1.83;;;0.13;;
74967;SDS011;63523;51.880;12.630;2023-07-28T02:12:24;2.27;;;0.20;;
74967;SDS011;63523;51.880;12.630;2023-07-28T02:14:49;2.70;;;0.20;;
74967;SDS011;63523;51.880;12.630;2023-07-28T02:17:15;3.53;;;0.20;;
74967;SDS011;63523;51.880;12.630;2023-07-28T02:19:40;2.30;;;0.20;;
74967;SDS011;63523;51.880;12.630;2023-07-28T02:22:07;2.35;;;0.20;;
74967;SDS011;63523;51.880;12.630;2023-07-28T02:24:32;2.13;;;0.20;;
74967;SDS011;63523;51.880;12.630;2023-07-28T02:26:57;1.67;;;0.20;;
74967;SDS011;63523;51.880;12.630;2023-07-28T02:29:22;2.93;;;0.30;;
74967;SDS011;63523;51.880;12.630;2023-07-28T02:31:48;3.53;;;0.22;;
74967;SDS011;63523;51.880;12.630;2023-07-28T02:34:13;1.83;;;0.20;;
74967;SDS011;63523;51.880;12.630;2023-07-28T02:36:38;3.67;;;0.30;;
74967;SDS011;63523;51.880;12.630;2023-07-28T02:39:04;3.53;;;0.30;;
74967;SDS011;63523;51.880;12.630;2023-07-28T02:41:29;1.20;;;0.20;;
74967;SDS011;63523;51.880;12.630;2023-07-28T02:43:54;1.87;;;0.30;;
74967;SDS011;63523;51.880;12.630;2023-07-28T02:46:20;2.50;;;0.20;;
74967;SDS011;63523;51.880;12.630;2023-07-28T02:48:45;1.63;;;0.20;;
74967;SDS011;63523;51.880;12.630;2023-07-28T02:51:10;2.63;;;0.20;;
74967;SDS011;63523;51.880;12.630;2023-07-28T02:53:36;2.80;;;0.20;;
74967;SDS011;63523;51.880;12.630;2023-07-28T02:56:01;2.00;;;0.20;;
74967;SDS011;63523;51.880;12.630;2023-07-28T02:58:26;2.83;;;0.40;;
74967;SDS011;63523;51.880;12.630;2023-07-28T03:00:52;2.07;;;0.20;;
74967;SDS011;63523;51.880;12.630;2023-07-28T03:03:17;1.23;;;0.20;;
74967;SDS011;63523;51.880;12.630;2023-07-28T03:05:42;2.57;;;0.20;;
74967;SDS011;63523;51.880;12.630;2023-07-28T03:08:08;2.13;;;0.20;;
74967;SDS011;63523;51.880;12.630;2023-07-28T03:10:33;1.83;;;0.20;;
74967;SDS011;63523;51.880;12.630;2023-07-28T03:12:58;1.87;;;0.20;;
74967;SDS011;63523;51.880;12.630;2023-07-28T03:15:24;3.43;;;0.27;;
74967;SDS011;63523;51.880;12.630;2023-07-28T03:17:49;2.07;;;0.30;;
74967;SDS011;63523;51.880;12.630;2023-07-28T03:20:15;1.60;;;0.20;;
74967;SDS011;63523;51.880;12.630;2023-07-28T03:22:41;3.13;;;0.30;;
74967;SDS011;63523;51.880;12.630;2023-07-28T03:25:06;5.00;;;0.30;;
74967;SDS011;63523;51.880;12.630;2023-07-28T03:27:32;1.35;;;0.20;;
74967;SDS011;63523;51.880;12.630;2023-07-28T03:29:57;1.87;;;0.20;;
74967;SDS011;63523;51.880;12.630;2023-07-28T03:32:22;1.40;;;0.20;;
74967;SDS011;63523;51.880;12.630;2023-07-28T03:34:48;4.70;;;0.23;;
74967;SDS011;63523;51.880;12.630;2023-07-28T03:37:13;2.42;;;0.30;;
74967;SDS011;63523;51.880;12.630;2023-07-28T03:39:38;2.17;;;0.40;;
74967;SDS011;63523;51.880;12.630;2023-07-28T03:42:04;2.03;;;0.30;;
74967;SDS011;63523;51.880;12.630;2023-07-28T03:44:29;1.83;;;0.27;;
74967;SDS011;63523;51.880;12.630;2023-07-28T03:46:55;3.13;;;0.30;;
74967;SDS011;63523;51.880;12.630;2023-07-28T03:49:20;2.30;;;0.30;;
74967;SDS011;63523;51.880;12.630;2023-07-28T03:51:46;2.23;;;0.30;;
74967;SDS011;63523;51.880;12.630;2023-07-28T03:54:11;2.03;;;0.23;;
74967;SDS011;63523;51.880;12.630;2023-07-28T03:56:36;1.90;;;0.30;;
74967;SDS011;63523;51.880;12.630;2023-07-28T03:59:02;2.77;;;0.30;;
74967;SDS011;63523;51.880;12.630;2023-07-28T04:01:27;2.17;;;0.30;;
74967;SDS011;63523;51.880;12.630;2023-07-28T04:03:52;4.00;;;0.23;;
74967;SDS011;63523;51.880;12.630;2023-07-28T04:06:17;2.27;;;0.30;;
74967;SDS011;63523;51.880;12.630;2023-07-28T04:08:43;1.67;;;0.30;;
74967;SDS011;63523;51.880;12.630;2023-07-28T04:11:08;1.97;;;0.20;;
74967;SDS011;63523;51.880;12.630;2023-07-28T04:13:34;3.03;;;0.30;;
74967;SDS011;63523;51.880;12.630;2023-07-28T04:15:59;2.60;;;0.30;;
74967;SDS011;63523;51.880;12.630;2023-07-28T04:18:25;2.57;;;0.30;;
74967;SDS011;63523;51.880;12.630;2023-07-28T04:20:50;1.80;;;0.20;;
74967;SDS011;63523;51.880;12.630;2023-07-28T04:23:16;1.63;;;0.30;;
74967;SDS011;63523;51.880;12.630;2023-07-28T04:25:41;5.95;;;0.52;;
74967;SDS011;63523;51.880;12.630;2023-07-28T04:28:06;3.00;;;0.27;;
74967;SDS011;63523;51.880;12.630;2023-07-28T04:30:31;1.87;;;0.20;;
74967;SDS011;63523;51.880;12.630;2023-07-28T04:32:57;2.00;;;0.40;;
74967;SDS011;63523;51.880;12.630;2023-07-28T04:35:22;1.93;;;0.30;;
74967;SDS011;63523;51.880;12.630;2023-07-28T04:37:47;2.83;;;0.20;;
74967;SDS011;63523;51.880;12.630;2023-07-28T04:40:13;1.57;;;0.20;;
74967;SDS011;63523;51.880;12.630;2023-07-28T04:42:38;2.80;;;0.28;;
74967;SDS011;63523;51.880;12.630;2023-07-28T04:45:04;2.20;;;0.30;;
74967;SDS011;63523;51.880;12.630;2023-07-28T04:47:30;2.63;;;0.20;;
74967;SDS011;63523;51.880;12.630;2023-07-28T04:49:55;4.27;;;0.20;;
74967;SDS011;63523;51.880;12.630;2023-07-28T04:52:20;3.57;;;0.43;;
74967;SDS011;63523;51.880;12.630;2023-07-28T04:54:46;2.37;;;0.40;;
74967;SDS011;63523;51.880;12.630;2023-07-28T04:57:11;1.80;;;0.20;;
74967;SDS011;63523;51.880;12.630;2023-07-28T04:59:37;2.20;;;0.30;;
74967;SDS011;63523;51.880;12.630;2023-07-28T05:02:02;1.80;;;0.20;;
74967;SDS011;63523;51.880;12.630;2023-07-28T05:04:28;1.70;;;0.20;;
74967;SDS011;63523;51.880;12.630;2023-07-28T05:06:53;1.70;;;0.20;;
74967;SDS011;63523;51.880;12.630;2023-07-28T05:09:19;3.83;;;0.30;;
74967;SDS011;63523;51.880;12.630;2023-07-28T05:11:44;2.73;;;0.20;;
74967;SDS011;63523;51.880;12.630;2023-07-28T05:14:10;1.30;;;0.20;;
74967;SDS011;63523;51.880;12.630;2023-07-28T05:16:35;2.03;;;0.30;;
74967;SDS011;63523;51.880;12.630;2023-07-28T05:19:01;2.10;;;0.20;;
74967;SDS011;63523;51.880;12.630;2023-07-28T05:21:26;2.45;;;0.30;;
74967;SDS011;63523;51.880;12.630;2023-07-28T05:23:51;2.90;;;0.30;;
74967;SDS011;63523;51.880;12.630;2023-07-28T05:26:17;2.97;;;0.20;;
74967;SDS011;63523;51.880;12.630;2023-07-28T05:28:42;1.80;;;0.30;;
74967;SDS011;63523;51.880;12.630;2023-07-28T05:31:07;2.00;;;0.30;;
74967;SDS011;63523;51.880;12.630;2023-07-28T05:33:33;2.60;;;0.27;;
74967;SDS011;63523;51.880;12.630;2023-07-28T05:36:01;3.08;;;0.20;;
74967;SDS011;63523;51.880;12.630;2023-07-28T05:38:27;2.50;;;0.20;;
74967;SDS011;63523;51.880;12.630;2023-07-28T05:40:56;1.93;;;0.20;;
74967;SDS011;63523;51.880;12.630;2023-07-28T05:43:22;2.72;;;0.10;;
74967;SDS011;63523;51.880;12.630;2023-07-28T05:45:47;1.47;;;0.20;;
74967;SDS011;63523;51.880;12.630;2023-07-28T05:48:13;1.40;;;0.10;;
74967;SDS011;63523;51.880;12.630;2023-07-28T05:50:38;1.98;;;0.10;;
74967;SDS011;63523;51.880;12.630;2023-07-28T05:53:04;3.10;;;0.30;;
74967;SDS011;63523;51.880;12.630;2023-07-28T05:55:29;1.87;;;0.20;;
74967;SDS011;63523;51.880;12.630;2023-07-28T05:57:54;1.53;;;0.20;;
74967;SDS011;63523;51.880;12.630;2023-07-28T06:00:20;2.53;;;0.30;;
74967;SDS011;63523;51.880;12.630;2023-07-28T06:02:45;1.10;;;0.10;;
74967;SDS011;63523;51.880;12.630;2023-07-28T06:05:10;3.80;;;0.30;;
74967;SDS011;63523;51.880;12.630;2023-07-28T06:07:36;2.57;;;0.20;;
74967;SDS011;63523;51.880;12.630;2023-07-28T06:10:01;3.13;;;0.50;;
74967;SDS011;63523;51.880;12.630;2023-07-28T06:12:27;2.75;;;0.20;;
74967;SDS011;63523;51.880;12.630;2023-07-28T06:14:52;2.70;;;0.20;;
74967;SDS011;63523;51.880;12.630;2023-07-28T06:17:18;2.40;;;0.20;;
74967;SDS011;63523;51.880;12.630;2023-07-28T06:19:43;1.17;;;0.20;;
74967;SDS011;63523;51.880;12.630;2023-07-28T06:22:08;2.03;;;0.10;;
74967;SDS011;63523;51.880;12.630;2023-07-28T06:24:34;2.75;;;0.20;;
74967;SDS011;63523;51.880;12.630;2023-07-28T06:26:59;1.97;;;0.10;;
74967;SDS011;63523;51.880;12.630;2023-07-28T06:29:24;3.10;;;0.30;;
74967;SDS011;63523;51.880;12.630;2023-07-28T06:31:50;1.80;;;0.20;;
74967;SDS011;63523;51.880;12.630;2023-07-28T06:34:15;1.97;;;0.13;;
74967;SDS011;63523;51.880;12.630;2023-07-28T06:36:41;2.33;;;0.30;;
74967;SDS011;63523;51.880;12.630;2023-07-28T06:39:06;1.65;;;0.20;;
74967;SDS011;63523;51.880;12.630;2023-07-28T06:41:32;2.23;;;0.20;;
74967;SDS011;63523;51.880;12.630;2023-07-28T06:43:57;3.73;;;0.20;;
74967;SDS011;63523;51.880;12.630;2023-07-28T06:46:22;1.50;;;0.20;;
74967;SDS011;63523;51.880;12.630;2023-07-28T06:48:48;2.30;;;0.20;;
74967;SDS011;63523;51.880;12.630;2023-07-28T06:51:13;1.60;;;0.20;;
74967;SDS011;63523;51.880;12.630;2023-07-28T06:53:38;3.10;;;0.20;;
74967;SDS011;63523;51.880;12.630;2023-07-28T06:56:04;2.77;;;0.20;;
74967;SDS011;63523;51.880;12.630;2023-07-28T06:58:29;1.93;;;0.20;;
74967;SDS011;63523;51.880;12.630;2023-07-28T07:00:54;6.77;;;1.70;;
74967;SDS011;63523;51.880;12.630;2023-07-28T07:03:23;9.40;;;2.45;;
74967;SDS011;63523;51.880;12.630;2023-07-28T07:05:49;8.80;;;2.28;;
74967;SDS011;63523;51.880;12.630;2023-07-28T07:08:14;9.00;;;2.33;;
74967;SDS011;63523;51.880;12.630;2023-07-28T07:10:39;7.83;;;1.40;;
74967;SDS011;63523;51.880;12.630;2023-07-28T07:13:05;6.07;;;0.90;;
74967;SDS011;63523;51.880;12.630;2023-07-28T07:15:30;4.30;;;0.82;;
74967;SDS011;63523;51.880;12.630;2023-07-28T07:17:59;4.70;;;1.00;;
74967;SDS011;63523;51.880;12.630;2023-07-28T07:20:25;2.87;;;0.57;;
74967;SDS011;63523;51.880;12.630;2023-07-28T07:22:50;4.65;;;0.20;;
74967;SDS011;63523;51.880;12.630;2023-07-28T07:25:16;2.95;;;0.30;;
74967;SDS011;63523;51.880;12.630;2023-07-28T07:27:42;1.77;;;0.20;;
74967;SDS011;63523;51.880;12.630;2023-07-28T07:30:07;1.37;;;0.17;;
74967;SDS011;63523;51.880;12.630;2023-07-28T07:32:33;1.30;;;0.10;;
74967;SDS011;63523;51.880;12.630;2023-07-28T07:34:59;1.08;;;0.20;;
74967;SDS011;63523;51.880;12.630;2023-07-28T07:37:24;2.30;;;0.10;;
74967;SDS011;63523;51.880;12.630;2023-07-28T07:39:50;1.67;;;0.20;;
74967;SDS011;63523;51.880;12.630;2023-07-28T07:42:15;1.87;;;0.10;;
74967;SDS011;63523;51.880;12.630;2023-07-28T07:44:40;3.23;;;0.30;;
74967;SDS011;63523;51.880;12.630;2023-07-28T07:47:12;1.90;;;0.10;;
74967;SDS011;63523;51.880;12.630;2023-07-28T07:49:42;2.33;;;0.30;;
74967;SDS011;63523;51.880;12.630;2023-07-28T07:52:08;1.40;;;0.20;;
74967;SDS011;63523;51.880;12.630;2023-07-28T07:54:36;1.58;;;0.20;;
74967;SDS011;63523;51.880;12.630;2023-07-28T07:57:02;1.50;;;0.10;;
74967;SDS011;63523;51.880;12.630;2023-07-28T07:59:28;3.03;;;0.20;;
74967;SDS011;63523;51.880;12.630;2023-07-28T08:01:57;1.88;;;0.20;;
74967;SDS011;63523;51.880;12.630;2023-07-28T08:04:25;1.60;;;0.20;;
74967;SDS011;63523;51.880;12.630;2023-07-28T08:06:50;2.10;;;0.27;;
74967;SDS011;63523;51.880;12.630;2023-07-28T08:09:16;1.67;;;0.20;;
74967;SDS011;63523;51.880;12.630;2023-07-28T08:11:41;2.03;;;0.30;;
74967;SDS011;63523;51.880;12.630;2023-07-28T08:14:06;1.90;;;0.30;;
74967;SDS011;63523;51.880;12.630;2023-07-28T08:16:31;3.42;;;0.20;;
74967;SDS011;63523;51.880;12.630;2023-07-28T08:18:57;1.70;;;0.20;;
74967;SDS011;63523;51.880;12.630;2023-07-28T08:21:22;2.67;;;0.30;;
74967;SDS011;63523;51.880;12.630;2023-07-28T08:23:48;1.63;;;0.30;;
74967;SDS011;63523;51.880;12.630;2023-07-28T08:26:13;2.92;;;0.20;;
74967;SDS011;63523;51.880;12.630;2023-07-28T08:28:38;1.87;;;0.20;;
74967;SDS011;63523;51.880;12.630;2023-07-28T08:31:04;1.40;;;0.20;;
74967;SDS011;63523;51.880;12.630;2023-07-28T08:33:29;1.53;;;0.20;;
74967;SDS011;63523;51.880;12.630;2023-07-28T08:35:55;2.63;;;0.20;;
74967;SDS011;63523;51.880;12.630;2023-07-28T08:38:20;4.28;;;0.30;;
74967;SDS011;63523;51.880;12.630;2023-07-28T08:40:46;2.27;;;0.23;;
74967;SDS011;63523;51.880;12.630;2023-07-28T08:43:11;1.60;;;0.20;;
74967;SDS011;63523;51.880;12.630;2023-07-28T08:45:37;6.10;;;0.50;;
74967;SDS011;63523;51.880;12.630;2023-07-28T08:48:03;1.40;;;0.20;;
74967;SDS011;63523;51.880;12.630;2023-07-28T08:50:29;1.52;;;0.28;;
74967;SDS011;63523;51.880;12.630;2023-07-28T08:52:55;3.00;;;0.20;;
74967;SDS011;63523;51.880;12.630;2023-07-28T08:55:21;1.45;;;0.25;;
74967;SDS011;63523;51.880;12.630;2023-07-28T08:57:47;1.60;;;0.30;;
74967;SDS011;63523;51.880;12.630;2023-07-28T09:00:13;2.65;;;0.38;;
74967;SDS011;63523;51.880;12.630;2023-07-28T09:02:42;1.98;;;0.28;;
74967;SDS011;63523;51.880;12.630;2023-07-28T09:05:16;3.58;;;0.50;;
74967;SDS011;63523;51.880;12.630;2023-07-28T09:07:44;3.43;;;0.40;;
74967;SDS011;63523;51.880;12.630;2023-07-28T09:10:10;2.35;;;0.38;;
74967;SDS011;63523;51.880;12.630;2023-07-28T09:12:44;4.55;;;0.65;;
74967;SDS011;63523;51.880;12.630;2023-07-28T09:15:10;2.58;;;0.40;;
74967;SDS011;63523;51.880;12.630;2023-07-28T09:17:40;1.67;;;0.40;;
74967;SDS011;63523;51.880;12.630;2023-07-28T09:20:07;2.58;;;0.30;;
74967;SDS011;63523;51.880;12.630;2023-07-28T09:22:39;2.22;;;0.43;;
74967;SDS011;63523;51.880;12.630;2023-07-28T09:25:14;2.83;;;0.60;;
74967;SDS011;63523;51.880;12.630;2023-07-28T09:27:40;3.58;;;0.73;;
74967;SDS011;63523;51.880;12.630;2023-07-28T09:30:06;3.72;;;0.70;;
74967;SDS011;63523;51.880;12.630;2023-07-28T09:32:32;3.63;;;0.82;;
74967;SDS011;63523;51.880;12.630;2023-07-28T09:35:08;10.43;;;3.10;;
74967;SDS011;63523;51.880;12.630;2023-07-28T09:37:43;7.97;;;2.85;;
74967;SDS011;63523;51.880;12.630;2023-07-28T09:40:13;8.48;;;1.60;;
74967;SDS011;63523;51.880;12.630;2023-07-28T09:42:42;5.57;;;1.10;;
74967;SDS011;63523;51.880;12.630;2023-07-28T09:45:10;4.45;;;0.70;;
74967;SDS011;63523;51.880;12.630;2023-07-28T09:47:37;2.33;;;0.50;;
74967;SDS011;63523;51.880;12.630;2023-07-28T09:50:03;2.85;;;0.60;;
74967;SDS011;63523;51.880;12.630;2023-07-28T09:52:36;3.15;;;0.60;;
74967;SDS011;63523;51.880;12.630;2023-07-28T09:55:06;2.42;;;0.60;;
74967;SDS011;63523;51.880;12.630;2023-07-28T09:57:43;2.60;;;0.40;;
74967;SDS011;63523;51.880;12.630;2023-07-28T10:00:11;1.80;;;0.40;;
74967;SDS011;63523;51.880;12.630;2023-07-28T10:02:38;4.13;;;0.60;;
74967;SDS011;63523;51.880;12.630;2023-07-28T10:05:05;3.25;;;0.60;;
74967;SDS011;63523;51.880;12.630;2023-07-28T10:07:32;4.05;;;0.50;;
74967;SDS011;63523;51.880;12.630;2023-07-28T10:09:59;1.98;;;0.40;;
74967;SDS011;63523;51.880;12.630;2023-07-28T10:12:24;3.40;;;0.77;;
74967;SDS011;63523;51.880;12.630;2023-07-28T10:15:03;5.90;;;1.77;;
74967;SDS011;63523;51.880;12.630;2023-07-28T10:17:34;4.20;;;1.10;;
74967;SDS011;63523;51.880;12.630;2023-07-28T10:20:05;4.32;;;1.10;;
74967;SDS011;63523;51.880;12.630;2023-07-28T10:22:42;6.70;;;2.05;;
74967;SDS011;63523;51.880;12.630;2023-07-28T10:25:09;7.03;;;2.50;;
74967;SDS011;63523;51.880;12.630;2023-07-28T10:27:39;4.93;;;1.63;;
74967;SDS011;63523;51.880;12.630;2023-07-28T10:30:11;2.90;;;0.63;;
74967;SDS011;63523;51.880;12.630;2023-07-28T10:32:41;4.47;;;1.50;;
74967;SDS011;63523;51.880;12.630;2023-07-28T10:37:45;4.05;;;1.27;;
74967;SDS011;63523;51.880;12.630;2023-07-28T10:43:02;4.03;;;1.33;;
74967;SDS011;63523;51.880;12.630;2023-07-28T10:45:30;7.43;;;1.80;;
74967;SDS011;63523;51.880;12.630;2023-07-28T10:47:56;8.43;;;2.80;;
74967;SDS011;63523;51.880;12.630;2023-07-28T10:50:28;10.88;;;3.53;;
74967;SDS011;63523;51.880;12.630;2023-07-28T10:52:54;8.20;;;2.25;;
74967;SDS011;63523;51.880;12.630;2023-07-28T10:55:24;8.20;;;2.40;;
74967;SDS011;63523;51.880;12.630;2023-07-28T10:57:52;5.55;;;2.03;;
74967;SDS011;63523;51.880;12.630;2023-07-28T11:00:19;5.38;;;1.60;;
74967;SDS011;63523;51.880;12.630;2023-07-28T11:02:47;2.78;;;0.90;;
74967;SDS011;63523;51.880;12.630;2023-07-28T11:05:19;2.35;;;0.60;;
74967;SDS011;63523;51.880;12.630;2023-07-28T11:07:45;2.60;;;0.80;;
74967;SDS011;63523;51.880;12.630;2023-07-28T11:10:10;2.33;;;0.70;;
74967;SDS011;63523;51.880;12.630;2023-07-28T11:12:57;2.92;;;0.63;;
74967;SDS011;63523;51.880;12.630;2023-07-28T11:15:26;2.30;;;0.70;;
74967;SDS011;63523;51.880;12.630;2023-07-28T11:17:52;4.03;;;0.90;;
74967;SDS011;63523;51.880;12.630;2023-07-28T11:20:22;2.95;;;0.98;;
74967;SDS011;63523;51.880;12.630;2023-07-28T11:25:23;3.67;;;0.90;;
74967;SDS011;63523;51.880;12.630;2023-07-28T11:27:51;3.00;;;1.00;;
74967;SDS011;63523;51.880;12.630;2023-07-28T11:30:17;3.30;;;1.00;;
74967;SDS011;63523;51.880;12.630;2023-07-28T11:32:44;2.80;;;0.90;;
74967;SDS011;63523;51.880;12.630;2023-07-28T11:35:14;2.70;;;0.80;;
74967;SDS011;63523;51.880;12.630;2023-07-28T11:37:41;3.40;;;1.00;;
74967;SDS011;63523;51.880;12.630;2023-07-28T11:40:08;2.83;;;0.85;;
74967;SDS011;63523;51.880;12.630;2023-07-28T11:42:38;3.70;;;1.23;;
74967;SDS011;63523;51.880;12.630;2023-07-28T11:45:13;5.55;;;1.30;;
74967;SDS011;63523;51.880;12.630;2023-07-28T11:47:50;4.50;;;1.50;;
74967;SDS011;63523;51.880;12.630;2023-07-28T11:50:26;7.47;;;1.80;;
74967;SDS011;63523;51.880;12.630;2023-07-28T11:52:54;7.70;;;2.08;;
74967;SDS011;63523;51.880;12.630;2023-07-28T11:55:21;7.85;;;2.05;;
74967;SDS011;63523;51.880;12.630;2023-07-28T11:57:47;5.40;;;1.95;;
74967;SDS011;63523;51.880;12.630;2023-07-28T12:00:13;8.80;;;1.87;;
74967;SDS011;63523;51.880;12.630;2023-07-28T12:02:42;4.05;;;1.42;;
74967;SDS011;63523;51.880;12.630;2023-07-28T12:05:16;6.47;;;2.38;;
74967;SDS011;63523;51.880;12.630;2023-07-28T12:07:47;7.18;;;2.75;;
74967;SDS011;63523;51.880;12.630;2023-07-28T12:10:13;9.00;;;3.13;;
74967;SDS011;63523;51.880;12.630;2023-07-28T12:12:39;7.35;;;2.00;;
74967;SDS011;63523;51.880;12.630;2023-07-28T12:15:28;5.93;;;1.50;;
74967;SDS011;63523;51.880;12.630;2023-07-28T12:18:27;6.07;;;1.88;;
74967;SDS011;63523;51.880;12.630;2023-07-28T12:20:48;6.13;;;1.67;;
74967;SDS011;63523;51.880;12.630;2023-07-28T12:23:21;4.57;;;1.80;;
74967;SDS011;63523;51.880;12.630;2023-07-28T12:25:48;6.10;;;2.13;;
74967;SDS011;63523;51.880;12.630;2023-07-28T12:28:15;7.57;;;2.20;;
74967;SDS011;63523;51.880;12.630;2023-07-28T12:30:40;4.95;;;1.70;;
74967;SDS011;63523;51.880;12.630;2023-07-28T12:33:06;5.77;;;2.60;;
74967;SDS011;63523;51.880;12.630;2023-07-28T12:35:33;5.88;;;2.30;;
74967;SDS011;63523;51.880;12.630;2023-07-28T12:38:02;7.25;;;2.42;;
74967;SDS011;63523;51.880;12.630;2023-07-28T12:40:30;4.93;;;2.00;;
74967;SDS011;63523;51.880;12.630;2023-07-28T12:42:56;8.33;;;2.57;;
74967;SDS011;63523;51.880;12.630;2023-07-28T12:45:22;7.80;;;2.80;;
74967;SDS011;63523;51.880;12.630;2023-07-28T12:47:50;8.75;;;3.28;;
74967;SDS011;63523;51.880;12.630;2023-07-28T12:50:19;6.90;;;2.92;;
74967;SDS011;63523;51.880;12.630;2023-07-28T12:52:48;5.32;;;1.90;;
74967;SDS011;63523;51.880;12.630;2023-07-28T12:55:14;5.70;;;2.07;;
74967;SDS011;63523;51.880;12.630;2023-07-28T12:57:40;4.03;;;1.55;;
74967;SDS011;63523;51.880;12.630;2023-07-28T13:00:06;2.93;;;1.07;;
74967;SDS011;63523;51.880;12.630;2023-07-28T13:02:40;3.05;;;1.10;;
74967;SDS011;63523;51.880;12.630;2023-07-28T13:05:06;2.65;;;1.10;;
74967;SDS011;63523;51.880;12.630;2023-07-28T13:07:32;3.10;;;0.98;;
74967;SDS011;63523;51.880;12.630;2023-07-28T13:09:57;2.70;;;1.20;;
74967;SDS011;63523;51.880;12.630;2023-07-28T13:12:22;2.93;;;1.20;;
74967;SDS011;63523;51.880;12.630;2023-07-28T13:14:48;3.30;;;1.20;;
74967;SDS011;63523;51.880;12.630;2023-07-28T13:17:13;2.90;;;1.10;;
74967;SDS011;63523;51.880;12.630;2023-07-28T13:19:39;2.80;;;1.27;;
74967;SDS011;63523;51.880;12.630;2023-07-28T13:22:05;3.30;;;1.13;;
74967;SDS011;63523;51.880;12.630;2023-07-28T13:24:30;3.22;;;1.10;;
74967;SDS011;63523;51.880;12.630;2023-07-28T13:26:56;2.63;;;1.00;;
74967;SDS011;63523;51.880;12.630;2023-07-28T13:29:22;2.60;;;0.90;;
74967;SDS011;63523;51.880;12.630;2023-07-28T13:31:47;2.87;;;1.00;;
74967;SDS011;63523;51.880;12.630;2023-07-28T13:34:12;2.83;;;1.10;;
74967;SDS011;63523;51.880;12.630;2023-07-28T13:36:38;2.50;;;0.90;;
74967;SDS011;63523;51.880;12.630;2023-07-28T13:39:03;2.60;;;1.00;;
74967;SDS011;63523;51.880;12.630;2023-07-28T13:41:29;3.17;;;1.10;;
74967;SDS011;63523;51.880;12.630;2023-07-28T13:43:54;4.70;;;1.70;;
74967;SDS011;63523;51.880;12.630;2023-07-28T13:46:20;4.37;;;1.70;;
74967;SDS011;63523;51.880;12.630;2023-07-28T13:48:45;3.70;;;1.13;;
74967;SDS011;63523;51.880;12.630;2023-07-28T13:51:10;2.70;;;1.00;;
74967;SDS011;63523;51.880;12.630;2023-07-28T13:53:36;3.30;;;1.23;;
74967;SDS011;63523;51.880;12.630;2023-07-28T13:56:01;2.70;;;1.00;;
74967;SDS011;63523;51.880;12.630;2023-07-28T13:58:27;3.03;;;1.13;;
74967;SDS011;63523;51.880;12.630;2023-07-28T14:00:52;2.97;;;1.20;;
74967;SDS011;63523;51.880;12.630;2023-07-28T14:03:17;2.88;;;1.10;;
74967;SDS011;63523;51.880;12.630;2023-07-28T14:05:43;2.80;;;1.10;;
74967;SDS011;63523;51.880;12.630;2023-07-28T14:08:09;3.20;;;1.05;;
74967;SDS011;63523;51.880;12.630;2023-07-28T14:10:36;2.70;;;1.03;;
74967;SDS011;63523;51.880;12.630;2023-07-28T14:13:03;3.15;;;1.23;;
74967;SDS011;63523;51.880;12.630;2023-07-28T14:15:28;2.90;;;1.40;;
74967;SDS011;63523;51.880;12.630;2023-07-28T14:17:53;3.50;;;1.17;;
74967;SDS011;63523;51.880;12.630;2023-07-28T14:20:19;3.57;;;1.20;;
74967;SDS011;63523;51.880;12.630;2023-07-28T14:22:44;3.00;;;1.40;;
74967;SDS011;63523;51.880;12.630;2023-07-28T14:25:10;2.80;;;1.20;;
74967;SDS011;63523;51.880;12.630;2023-07-28T14:27:35;3.40;;;1.37;;
74967;SDS011;63523;51.880;12.630;2023-07-28T14:30:00;2.63;;;1.00;;
74967;SDS011;63523;51.880;12.630;2023-07-28T14:32:26;2.50;;;1.07;;
74967;SDS011;63523;51.880;12.630;2023-07-28T14:34:51;2.90;;;1.20;;
74967;SDS011;63523;51.880;12.630;2023-07-28T14:37:17;3.03;;;1.38;;
74967;SDS011;63523;51.880;12.630;2023-07-28T14:39:42;2.80;;;1.30;;
74967;SDS011;63523;51.880;12.630;2023-07-28T14:42:07;3.10;;;1.30;;
74967;SDS011;63523;51.880;12.630;2023-07-28T14:44:33;2.73;;;0.93;;